createdAt,value
2022-11-04T00:00:38.350Z,100500.81
2022-11-04T00:03:05.457Z,100500.06
2022-11-04T00:05:32.899Z,100498.41
2022-11-04T00:08:18.436Z,100491.31
2022-11-04T00:11:11.864Z,100499.03
2022-11-04T00:13:38.789Z,100497.63
2022-11-04T00:16:24.523Z,100487.41
2022-11-04T00:18:51.424Z,100492.69
2022-11-04T00:21:37.532Z,100491.44
2022-11-04T00:24:23.267Z,100485.03
2022-11-04T00:27:09.096Z,100482.81
2022-11-04T00:29:36.046Z,100485.47
2022-11-04T00:32:21.944Z,100484.97
2022-11-04T00:34:48.799Z,100489.22
2022-11-04T00:37:16.044Z,100488.28
2022-11-04T00:39:42.959Z,100484.84
2022-11-04T00:42:10.350Z,100487.47
2022-11-04T00:44:37.273Z,100487.75
2022-11-04T00:47:04.523Z,100484.44
2022-11-04T00:49:31.454Z,100481.03
2022-11-04T00:51:58.357Z,100483.63
2022-11-04T00:54:25.660Z,100480.19
2022-11-04T00:56:54.128Z,100483.44
2022-11-04T00:59:21.364Z,100474.13
2022-11-04T01:01:48.455Z,100482.81
2022-11-04T01:04:15.855Z,100471.16
2022-11-04T01:06:42.775Z,100470.81
2022-11-04T01:09:12.115Z,100467.97
2022-11-04T01:11:39.100Z,100464.84
2022-11-04T01:14:06.361Z,100467.16
2022-11-04T01:16:33.559Z,100454.13
2022-11-04T01:19:01.015Z,100453.66
2022-11-04T01:21:27.934Z,100448.66
2022-11-04T01:23:55.548Z,100441.97
2022-11-04T01:26:24.272Z,100447.53
2022-11-04T01:28:52.766Z,100449.16
2022-11-04T01:31:23.691Z,100459.31
2022-11-04T01:33:51.839Z,100453.88
2022-11-04T01:36:18.851Z,100438.75
2022-11-04T01:38:46.255Z,100441.34
2022-11-04T01:41:21.275Z,100437.03
2022-11-04T01:43:56.400Z,100436.75
2022-11-04T01:46:26.759Z,100434.78
2022-11-04T01:48:56.618Z,100448.38
2022-11-04T01:51:23.835Z,100446.56
2022-11-04T01:53:52.343Z,100445.28
2022-11-04T01:56:20.932Z,100438.22
2022-11-04T01:58:52.892Z,100439.84
2022-11-04T02:01:20.157Z,100438.00
2022-11-04T02:03:50.938Z,100436.19
2022-11-04T02:06:18.708Z,100428.56
2022-11-04T02:08:46.670Z,100428.50
2022-11-04T02:11:34.165Z,100425.19
2022-11-04T02:14:01.551Z,100419.41
2022-11-04T02:16:40.415Z,100409.41
2022-11-04T02:19:19.683Z,100398.91
2022-11-04T02:22:05.214Z,100401.81
2022-11-04T02:24:50.943Z,100398.19
2022-11-04T02:27:27.514Z,100409.22
2022-11-04T02:29:57.435Z,100416.25
2022-11-04T02:32:25.282Z,100407.22
2022-11-04T02:34:58.480Z,100394.03
2022-11-04T02:37:36.677Z,100395.59
2022-11-04T02:40:14.142Z,100395.41
2022-11-04T02:42:47.496Z,100397.63
2022-11-04T02:45:22.187Z,100397.09
2022-11-04T02:47:52.986Z,100392.78
2022-11-04T02:50:31.579Z,100392.91
2022-11-04T02:53:01.735Z,100378.78
2022-11-04T02:55:32.142Z,100382.16
2022-11-04T02:58:01.236Z,100383.03
2022-11-04T03:00:28.871Z,100384.78
2022-11-04T03:03:06.409Z,100391.69
2022-11-04T03:05:35.283Z,100392.38
2022-11-04T03:08:05.648Z,100381.91
2022-11-04T03:10:42.137Z,100393.19
2022-11-04T03:13:13.482Z,100403.47
2022-11-04T03:15:43.195Z,100396.16
2022-11-04T03:18:17.872Z,100386.00
2022-11-04T03:20:46.307Z,100375.16
2022-11-04T03:23:13.991Z,100363.25
2022-11-04T03:25:44.272Z,100368.09
2022-11-04T03:28:17.406Z,100375.09
2022-11-04T03:30:47.800Z,100377.16
2022-11-04T03:33:33.634Z,100380.03
2022-11-04T03:36:00.617Z,100375.50
2022-11-04T03:38:27.900Z,100374.13
2022-11-04T03:40:54.838Z,100378.63
2022-11-04T03:43:26.191Z,100380.22
2022-11-04T03:45:53.924Z,100367.56
2022-11-04T03:48:21.240Z,100364.81
2022-11-04T03:50:48.880Z,100382.13
2022-11-04T03:53:18.785Z,100379.75
2022-11-04T03:55:48.510Z,100371.81
2022-11-04T03:58:24.690Z,100366.75
2022-11-04T04:01:05.997Z,100365.97
2022-11-04T04:03:55.479Z,100361.13
2022-11-04T04:06:27.001Z,100369.75
2022-11-04T04:08:55.773Z,100366.19
2022-11-04T04:11:28.746Z,100368.25
2022-11-04T04:14:34.412Z,100376.47
2022-11-04T04:17:03.845Z,100368.44
2022-11-04T04:19:32.076Z,100362.25
2022-11-04T04:22:01.475Z,100356.41
2022-11-04T04:24:50.558Z,100357.31
2022-11-04T04:27:31.379Z,100363.94
2022-11-04T04:30:04.610Z,100367.44
2022-11-04T04:32:34.898Z,100366.53
2022-11-04T04:35:20.531Z,100369.81
2022-11-04T04:37:48.340Z,100389.28
2022-11-04T04:40:35.904Z,100392.97
2022-11-04T04:43:23.706Z,100407.03
2022-11-04T04:45:52.974Z,100397.31
2022-11-04T04:48:20.186Z,100399.25
2022-11-04T04:50:50.057Z,100392.63
2022-11-04T04:53:17.469Z,100387.06
2022-11-04T04:55:44.355Z,100384.47
2022-11-04T04:58:11.573Z,100381.66
2022-11-04T05:00:38.486Z,100379.03
2022-11-04T05:03:06.124Z,100388.56
2022-11-04T05:05:33.331Z,100382.06
2022-11-04T05:08:05.019Z,100386.09
2022-11-04T05:10:31.943Z,100379.19
2022-11-04T05:13:18.248Z,100380.09
2022-11-04T05:15:45.423Z,100385.66
2022-11-04T05:18:12.338Z,100386.50
2022-11-04T05:20:40.505Z,100388.22
2022-11-04T05:23:07.781Z,100379.75
2022-11-04T05:25:35.255Z,100383.97
2022-11-04T05:28:02.571Z,100375.78
2022-11-04T05:30:29.844Z,100378.56
2022-11-04T05:32:59.979Z,100376.94
2022-11-04T05:35:32.182Z,100385.09
2022-11-04T05:37:59.086Z,100390.81
2022-11-04T05:40:26.327Z,100391.75
2022-11-04T05:42:53.316Z,100386.00
2022-11-04T05:45:20.546Z,100401.75
2022-11-04T05:47:47.572Z,100397.38
2022-11-04T05:50:14.875Z,100393.75
2022-11-04T05:52:41.822Z,100391.47
2022-11-04T05:55:09.193Z,100391.41
2022-11-04T05:57:38.337Z,100388.38
2022-11-04T06:00:06.206Z,100397.97
2022-11-04T06:02:33.300Z,100398.19
2022-11-04T06:05:00.754Z,100397.84
2022-11-04T06:07:27.664Z,100396.72
2022-11-04T06:09:54.899Z,100406.59
2022-11-04T06:12:21.828Z,100418.25
2022-11-04T06:14:48.979Z,100409.09
2022-11-04T06:17:16.938Z,100421.38
2022-11-04T06:19:44.295Z,100431.13
2022-11-04T06:22:12.138Z,100425.13
2022-11-04T06:24:39.644Z,100428.81
2022-11-04T06:27:06.747Z,100435.63
2022-11-04T06:29:33.927Z,100435.53
2022-11-04T06:32:00.776Z,100437.19
2022-11-04T06:34:29.299Z,100430.69
2022-11-04T06:36:56.163Z,100417.59
2022-11-04T06:39:23.482Z,100428.50
2022-11-04T06:41:51.754Z,100444.63
2022-11-04T06:44:20.253Z,100445.41
2022-11-04T06:46:47.186Z,100448.59
2022-11-04T06:49:18.777Z,100440.69
2022-11-04T06:51:46.176Z,100441.53
2022-11-04T06:54:14.111Z,100441.97
2022-11-04T06:56:41.312Z,100441.81
2022-11-04T06:59:08.985Z,100444.00
2022-11-04T07:01:36.956Z,100441.28
2022-11-04T07:04:05.621Z,100442.72
2022-11-04T07:06:32.446Z,100445.97
2022-11-04T07:09:00.438Z,100450.91
2022-11-04T07:11:29.570Z,100461.06
2022-11-04T07:13:57.543Z,100452.09
2022-11-04T07:16:24.412Z,100455.69
2022-11-04T07:18:52.123Z,100440.38
2022-11-04T07:21:18.980Z,100452.09
2022-11-04T07:23:46.603Z,100449.41
2022-11-04T07:26:13.737Z,100448.13
2022-11-04T07:28:41.003Z,100448.69
2022-11-04T07:31:08.466Z,100443.19
2022-11-04T07:33:36.173Z,100450.72
2022-11-04T07:36:07.188Z,100448.81
2022-11-04T07:38:34.380Z,100448.34
2022-11-04T07:41:02.676Z,100452.50
2022-11-04T07:43:30.160Z,100453.56
2022-11-04T07:46:04.148Z,100445.72
2022-11-04T07:48:31.609Z,100448.25
2022-11-04T07:50:59.905Z,100441.84
2022-11-04T07:53:27.566Z,100447.75
2022-11-04T07:55:54.584Z,100456.34
2022-11-04T07:58:22.408Z,100443.91
2022-11-04T08:00:50.068Z,100436.56
2022-11-04T08:03:17.818Z,100447.44
2022-11-04T08:05:44.688Z,100440.25
2022-11-04T08:08:11.887Z,100437.03
2022-11-04T08:10:38.851Z,100428.88
2022-11-04T08:13:06.329Z,100432.03
2022-11-04T08:15:35.914Z,100439.78
2022-11-04T08:18:03.109Z,100445.50
2022-11-04T08:20:30.224Z,100453.03
2022-11-04T08:22:57.488Z,100439.19
2022-11-04T08:25:24.387Z,100440.09
2022-11-04T08:27:52.842Z,100436.66
2022-11-04T08:30:22.466Z,100429.28
2022-11-04T08:32:49.698Z,100435.09
2022-11-04T08:35:16.636Z,100429.41
2022-11-04T08:37:43.923Z,100438.47
2022-11-04T08:40:10.896Z,100436.78
2022-11-04T08:42:38.344Z,100428.28
2022-11-04T08:45:05.535Z,100428.03
2022-11-04T08:47:32.936Z,100430.00
2022-11-04T08:49:59.806Z,100432.16
2022-11-04T08:52:27.292Z,100424.97
2022-11-04T08:54:57.428Z,100432.28
2022-11-04T08:57:25.202Z,100433.16
2022-11-04T08:59:52.227Z,100426.66
2022-11-04T09:02:19.410Z,100430.66
2022-11-04T09:04:46.243Z,100434.09
2022-11-04T09:07:13.607Z,100436.81
2022-11-04T09:09:41.072Z,100438.19
2022-11-04T09:12:11.395Z,100450.19
2022-11-04T09:14:38.385Z,100459.19
2022-11-04T09:17:05.534Z,100459.13
2022-11-04T09:19:32.760Z,100458.28
2022-11-04T09:22:00.027Z,100453.34
2022-11-04T09:24:26.952Z,100449.88
2022-11-04T09:26:54.263Z,100454.94
2022-11-04T09:29:21.155Z,100457.38
2022-11-04T09:31:50.214Z,100457.06
2022-11-04T09:34:20.591Z,100463.72
2022-11-04T09:36:48.130Z,100458.09
2022-11-04T09:39:15.095Z,100450.03
2022-11-04T09:41:49.725Z,100442.97
2022-11-04T09:44:25.841Z,100441.31
2022-11-04T09:46:55.375Z,100434.84
2022-11-04T09:49:23.112Z,100434.44
2022-11-04T09:51:55.215Z,100434.69
2022-11-04T09:54:24.910Z,100427.22
2022-11-04T09:56:53.280Z,100415.41
2022-11-04T09:59:21.499Z,100407.16
2022-11-04T10:01:49.411Z,100407.97
2022-11-04T10:04:34.469Z,100399.13
2022-11-04T10:07:13.659Z,100398.16
2022-11-04T10:10:01.511Z,100407.97
2022-11-04T10:12:28.760Z,100426.28
2022-11-04T10:15:19.012Z,100427.97
2022-11-04T10:18:04.731Z,100435.84
2022-11-04T10:20:37.358Z,100443.44
2022-11-04T10:23:12.844Z,100449.34
2022-11-04T10:25:59.915Z,100462.59
2022-11-04T10:28:41.215Z,100470.25
2022-11-04T10:31:11.123Z,100476.72
2022-11-04T10:33:41.160Z,100485.13
2022-11-04T10:36:09.853Z,100492.84
2022-11-04T10:38:43.627Z,100484.03
2022-11-04T10:41:34.029Z,100483.16
2022-11-04T10:44:06.992Z,100476.91
2022-11-04T10:46:39.955Z,100475.78
2022-11-04T10:49:22.416Z,100485.47
2022-11-04T10:51:49.269Z,100489.59
2022-11-04T10:54:16.515Z,100492.53
2022-11-04T10:56:53.989Z,100487.50
2022-11-04T10:59:26.551Z,100500.41
2022-11-04T11:01:57.691Z,100493.38
2022-11-04T11:04:30.091Z,100489.63
2022-11-04T11:06:58.570Z,100492.16
2022-11-04T11:09:30.700Z,100489.41
2022-11-04T11:12:00.988Z,100487.53
2022-11-04T11:14:28.239Z,100490.91
2022-11-04T11:17:17.511Z,100485.75
2022-11-04T11:20:08.491Z,100493.75
2022-11-04T11:22:35.387Z,100490.34
2022-11-04T11:25:31.969Z,100484.28
2022-11-04T11:28:03.236Z,100488.50
2022-11-04T11:30:32.291Z,100480.41
2022-11-04T11:33:01.081Z,100490.81
2022-11-04T11:35:31.131Z,100486.28
2022-11-04T11:37:59.350Z,100495.88
2022-11-04T11:40:28.177Z,100491.53
2022-11-04T11:42:55.907Z,100500.47
2022-11-04T11:45:23.802Z,100506.88
2022-11-04T11:47:55.096Z,100510.72
2022-11-04T11:50:31.520Z,100510.00
2022-11-04T11:53:29.640Z,100509.22
2022-11-04T11:56:03.516Z,100504.91
2022-11-04T12:01:33.193Z,100500.22
2022-11-04T12:10:23.987Z,100510.44
2022-11-04T12:13:28.029Z,100512.53
2022-11-04T12:16:14.839Z,100514.38
2022-11-04T12:18:54.150Z,100512.78
2022-11-04T12:21:33.054Z,100505.31
2022-11-04T12:24:20.694Z,100514.16
2022-11-04T12:26:54.621Z,100515.81
2022-11-04T12:29:34.143Z,100514.88
2022-11-04T12:32:16.600Z,100512.16
2022-11-04T12:35:10.305Z,100507.72
2022-11-04T12:37:52.575Z,100510.16
2022-11-04T12:40:19.987Z,100511.03
2022-11-04T12:43:07.550Z,100511.03
2022-11-04T12:45:59.147Z,100512.16
2022-11-04T12:48:26.116Z,100516.06
2022-11-04T12:51:28.907Z,100525.94
2022-11-04T12:54:08.975Z,100529.59
2022-11-04T12:56:38.249Z,100527.88
2022-11-04T12:59:26.989Z,100526.03
2022-11-04T13:01:54.362Z,100528.56
2022-11-04T13:04:24.014Z,100531.66
2022-11-04T13:07:04.183Z,100526.00
2022-11-04T13:09:46.368Z,100533.53
2022-11-04T13:12:16.541Z,100529.56
2022-11-04T13:14:59.070Z,100520.44
2022-11-04T13:17:39.231Z,100524.25
2022-11-04T13:20:15.621Z,100534.78
2022-11-04T13:22:44.696Z,100537.41
2022-11-04T13:25:24.631Z,100537.50
2022-11-04T13:27:51.610Z,100540.03
2022-11-04T13:30:27.652Z,100533.38
2022-11-04T13:32:58.803Z,100534.34
2022-11-04T13:35:26.027Z,100523.72
2022-11-04T13:37:58.328Z,100522.78
2022-11-04T13:40:32.410Z,100526.47
2022-11-04T13:43:36.377Z,100534.34
2022-11-04T13:46:04.428Z,100535.88
2022-11-04T13:48:33.774Z,100532.47
2022-11-04T13:51:08.851Z,100533.34
2022-11-04T13:53:41.781Z,100529.00
2022-11-04T13:56:32.277Z,100518.59
2022-11-04T13:59:00.177Z,100525.75
2022-11-04T14:01:29.898Z,100521.44
2022-11-04T14:04:19.111Z,100522.66
2022-11-04T14:07:14.564Z,100526.22
2022-11-04T14:09:44.496Z,100531.47
2022-11-04T14:12:14.703Z,100530.00
2022-11-04T14:14:42.932Z,100530.16
2022-11-04T14:17:28.728Z,100537.28
2022-11-04T14:19:58.004Z,100530.53
2022-11-04T14:22:29.570Z,100535.03
2022-11-04T14:24:58.474Z,100528.94
2022-11-04T14:27:27.845Z,100531.09
2022-11-04T14:29:55.527Z,100540.88
2022-11-04T14:32:27.450Z,100540.00
2022-11-04T14:34:59.211Z,100550.59
2022-11-04T14:37:32.294Z,100550.78
2022-11-04T14:40:00.957Z,100550.78
2022-11-04T14:42:47.759Z,100560.53
2022-11-04T14:45:25.800Z,100553.50
2022-11-04T14:47:57.448Z,100548.16
2022-11-04T14:50:26.681Z,100559.44
2022-11-04T14:52:53.487Z,100550.59
2022-11-04T14:55:22.695Z,100554.09
2022-11-04T14:57:53.077Z,100558.66
2022-11-04T15:00:32.127Z,100559.81
2022-11-04T15:03:45.926Z,100570.66
2022-11-04T15:06:06.084Z,100572.63
2022-11-04T15:08:42.957Z,100577.31
2022-11-04T15:11:17.661Z,100570.84
2022-11-04T15:13:45.189Z,100566.47
2022-11-04T15:16:18.216Z,100560.16
2022-11-04T15:18:45.359Z,100565.16
2022-11-04T15:21:13.284Z,100565.78
2022-11-04T15:23:42.708Z,100560.53
2022-11-04T15:26:30.563Z,100566.81
2022-11-04T15:29:04.354Z,100565.25
2022-11-04T15:31:32.893Z,100565.97
2022-11-04T15:34:01.652Z,100572.94
2022-11-04T15:36:32.523Z,100574.13
2022-11-04T15:39:19.828Z,100582.28
2022-11-04T15:42:05.939Z,100583.03
2022-11-04T15:44:34.980Z,100579.66
2022-11-04T15:47:03.420Z,100581.63
2022-11-04T15:49:32.041Z,100584.72
2022-11-04T15:52:20.017Z,100580.13
2022-11-04T15:54:48.761Z,100582.47
2022-11-04T15:57:21.457Z,100594.84
2022-11-04T16:00:01.595Z,100591.75
2022-11-04T16:02:30.941Z,100600.84
2022-11-04T16:05:26.878Z,100607.13
2022-11-04T16:07:54.659Z,100610.38
2022-11-04T16:10:35.477Z,100608.19
2022-11-04T16:13:14.618Z,100608.75
2022-11-04T16:15:57.048Z,100610.53
2022-11-04T16:18:23.883Z,100612.22
2022-11-04T16:20:53.245Z,100613.91
2022-11-04T16:23:25.089Z,100620.19
2022-11-04T16:26:04.359Z,100621.94
2022-11-04T16:28:40.923Z,100617.56
2022-11-04T16:31:23.322Z,100623.63
2022-11-04T16:33:50.725Z,100629.72
2022-11-04T16:36:23.803Z,100632.34
2022-11-04T16:39:03.867Z,100631.69
2022-11-04T21:40:15.193Z,100807.94
2022-11-04T21:42:42.592Z,100801.97
2022-11-04T21:45:09.870Z,100802.16
2022-11-04T21:47:37.122Z,100796.09
2022-11-04T21:50:04.260Z,100807.72
2022-11-04T21:52:31.875Z,100802.03
2022-11-04T21:54:59.027Z,100801.72
2022-11-04T21:57:26.428Z,100812.44
2022-11-04T21:59:53.424Z,100805.13
2022-11-04T22:02:20.877Z,100801.41
2022-11-04T22:04:47.877Z,100797.41
2022-11-04T22:07:15.222Z,100804.84
2022-11-04T22:09:42.309Z,100800.34
2022-11-04T22:12:09.599Z,100803.72
2022-11-04T22:14:36.739Z,100805.50
2022-11-04T22:17:04.045Z,100808.34
2022-11-04T22:19:30.923Z,100811.03
2022-11-04T22:21:58.321Z,100812.94
2022-11-04T22:24:25.396Z,100806.63
2022-11-04T22:26:52.851Z,100808.94
2022-11-04T22:29:19.823Z,100810.09
2022-11-04T22:31:47.115Z,100815.25
2022-11-04T22:34:13.990Z,100817.75
2022-11-04T22:36:41.236Z,100817.81
2022-11-04T22:39:15.017Z,100818.69
2022-11-04T22:41:44.039Z,100824.28
2022-11-04T22:44:11.257Z,100818.97
2022-11-04T22:46:38.822Z,100829.25
2022-11-04T22:49:05.684Z,100827.47
2022-11-04T22:51:32.901Z,100826.63
2022-11-04T22:54:06.564Z,100837.03
2022-11-04T22:56:35.833Z,100832.53
2022-11-04T22:59:02.845Z,100845.84
2022-11-04T23:01:31.786Z,100838.22
2022-11-04T23:03:59.402Z,100839.78
2022-11-04T23:06:26.853Z,100838.91
2022-11-04T23:08:59.687Z,100836.19
2022-11-04T23:11:47.035Z,100840.31
2022-11-04T23:14:33.984Z,100842.94
2022-11-04T23:17:20.286Z,100848.34
2022-11-04T23:19:47.244Z,100845.78
2022-11-04T23:22:33.135Z,100848.53
2022-11-04T23:25:06.277Z,100850.31
2022-11-04T23:27:52.503Z,100857.16
2022-11-04T23:30:22.448Z,100853.03
2022-11-04T23:32:52.875Z,100847.72
2022-11-04T23:35:38.506Z,100852.06
2022-11-04T23:38:06.230Z,100848.78
2022-11-04T23:40:33.395Z,100853.78
2022-11-04T23:43:00.987Z,100854.09
2022-11-04T23:45:46.450Z,100857.56
2022-11-04T23:48:32.464Z,100867.03
2022-11-04T23:51:18.755Z,100865.25
2022-11-04T23:54:04.979Z,100869.81
2022-11-04T23:56:50.798Z,100867.19
2022-11-04T23:59:37.331Z,100871.50
